Time,TemperatureF,DewpointF,PressureIn,WindDirection,WindDirectionDegrees,WindSpeedMPH,WindSpeedGustMPH,Humidity,HourlyPrecipIn,Conditions,Clouds,dailyrainin,SolarRadiationWatts/m^2,SoftwareType,DateUTC
2013-02-07 00:00:00,30.7,9.9,30.39,North,355,4.0,15.0,41,0.00,,,0.06,0.0,meteohub,2013-02-07 05:00:00,
2013-02-07 00:01:00,30.7,9.9,30.39,NW,325,2.0,15.0,41,0.00,,,0.06,0.0,meteohub,2013-02-07 05:01:00,
2013-02-07 00:02:00,30.7,9.9,30.39,NNW,342,4.0,15.0,41,0.00,,,0.06,0.0,meteohub,2013-02-07 05:02:00,
2013-02-07 00:07:00,30.7,8.8,30.39,NNW,331,2.0,11.0,39,0.00,,,0.00,0.0,meteohub,2013-02-07 05:07:00,
2013-02-07 00:12:00,30.7,8.8,30.39,NE,37,3.0,11.0,39,0.00,,,0.00,0.0,meteohub,2013-02-07 05:12:00,
2013-02-07 00:17:00,30.7,7.5,30.40,NNE,19,4.0,13.0,37,0.00,,,0.00,0.0,meteohub,2013-02-07 05:17:00,
2013-02-07 00:22:00,30.6,9.1,30.39,NE,35,3.0,13.0,40,0.00,,,0.00,0.0,meteohub,2013-02-07 05:22:00,
2013-02-07 00:27:00,30.6,9.1,30.39,NNW,348,6.0,13.0,40,0.00,,,0.00,0.0,meteohub,2013-02-07 05:27:00,
2013-02-07 00:32:00,30.4,9.0,30.38,NNW,348,4.0,12.0,40,0.00,,,0.00,0.0,meteohub,2013-02-07 05:32:00,
2013-02-07 00:37:00,30.4,8.4,30.38,NNW,338,5.0,13.0,39,0.00,,,0.00,0.0,meteohub,2013-02-07 05:37:00,
2013-02-07 00:47:00,30.2,8.2,30.39,NW,316,7.0,10.0,39,0.00,,,0.00,0.0,meteohub,2013-02-07 05:47:00,
2013-02-07 00:52:00,30.2,8.2,30.38,NW,325,6.0,13.0,39,0.00,,,0.00,0.0,meteohub,2013-02-07 05:52:00,
2013-02-07 00:57:00,30.0,7.5,30.38,NW,315,4.0,14.0,38,0.00,,,0.00,0.0,meteohub,2013-02-07 05:57:00,
2013-02-07 01:02:00,29.8,7.3,30.38,NNE,22,10.0,14.0,38,0.00,,,0.00,0.0,meteohub,2013-02-07 06:02:00,
2013-02-07 01:07:00,29.8,7.3,30.39,NW,326,3.0,14.0,38,0.00,,,0.00,0.0,meteohub,2013-02-07 06:07:00,
2013-02-07 01:12:00,29.8,7.9,30.39,NNW,336,3.0,11.0,39,0.00,,,0.00,0.0,meteohub,2013-02-07 06:12:00,
2013-02-07 01:17:00,29.7,9.3,30.39,North,0,2.0,11.0,42,0.00,,,0.00,0.0,meteohub,2013-02-07 06:17:00,
2013-02-07 01:22:00,29.7,8.8,30.39,NNW,329,2.0,9.0,41,0.00,,,0.00,0.0,meteohub,2013-02-07 06:22:00,
2013-02-07 01:27:00,29.7,8.2,30.40,WNW,298,6.0,9.0,40,0.00,,,0.00,0.0,meteohub,2013-02-07 06:27:00,
2013-02-07 01:32:00,29.7,9.3,30.40,WNW,301,2.0,10.0,42,0.00,,,0.00,0.0,meteohub,2013-02-07 06:32:00,
2013-02-07 01:37:00,29.5,9.1,30.40,NNW,329,4.0,10.0,42,0.00,,,0.00,0.0,meteohub,2013-02-07 06:37:00,
2013-02-07 01:42:00,29.5,8.1,30.40,North,355,6.0,8.0,40,0.00,,,0.00,0.0,meteohub,2013-02-07 06:42:00,
2013-02-07 01:47:00,29.5,7.5,30.40,North,0,4.0,11.0,39,0.00,,,0.00,0.0,meteohub,2013-02-07 06:47:00,
2013-02-07 01:52:00,29.5,9.1,30.40,North,350,4.0,11.0,42,0.00,,,0.00,0.0,meteohub,2013-02-07 06:52:00,
2013-02-07 01:57:00,29.5,9.1,30.41,NNE,13,6.0,11.0,42,0.00,,,0.00,0.0,meteohub,2013-02-07 06:57:00,
2013-02-07 02:02:00,29.3,7.3,30.41,NNW,334,7.0,11.0,39,0.00,,,0.00,0.0,meteohub,2013-02-07 07:02:00,
2013-02-07 02:07:00,29.1,7.9,30.41,NNW,346,5.0,10.0,40,0.00,,,0.00,0.0,meteohub,2013-02-07 07:07:00,
2013-02-07 02:12:00,29.1,9.0,30.42,SW,230,5.0,10.0,42,0.00,,,0.00,0.0,meteohub,2013-02-07 07:12:00,
2013-02-07 02:17:00,28.9,8.2,30.43,NNE,26,2.0,10.0,41,0.00,,,0.00,0.0,meteohub,2013-02-07 07:17:00,
2013-02-07 02:22:00,28.9,7.7,30.43,NNE,16,4.0,9.0,40,0.00,,,0.00,0.0,meteohub,2013-02-07 07:22:00,
2013-02-07 02:27:00,28.8,8.1,30.42,WNW,298,5.0,9.0,41,0.00,,,0.00,0.0,meteohub,2013-02-07 07:27:00,
2013-02-07 02:32:00,28.6,6.8,30.42,NE,55,1.0,8.0,39,0.00,,,0.00,0.0,meteohub,2013-02-07 07:32:00,
2013-02-07 02:37:00,28.6,6.8,30.43,West,265,3.0,8.0,39,0.00,,,0.00,0.0,meteohub,2013-02-07 07:37:00,
2013-02-07 02:42:00,28.6,6.8,30.43,West,280,4.0,8.0,39,0.00,,,0.00,0.0,meteohub,2013-02-07 07:42:00,
2013-02-07 02:47:00,28.6,6.8,30.43,NNW,347,0.0,9.0,39,0.00,,,0.00,0.0,meteohub,2013-02-07 07:47:00,
2013-02-07 02:52:00,28.6,6.3,30.43,NW,321,1.0,9.0,38,0.00,,,0.00,0.0,meteohub,2013-02-07 07:52:00,
2013-02-07 02:57:00,28.4,7.2,30.42,NNE,27,3.0,9.0,40,0.00,,,0.00,0.0,meteohub,2013-02-07 07:57:00,
2013-02-07 03:02:00,28.2,7.0,30.43,North,5,3.0,9.0,40,0.00,,,0.00,0.0,meteohub,2013-02-07 08:02:00,
2013-02-07 03:07:00,28.2,6.4,30.43,North,5,6.0,10.0,39,0.00,,,0.00,0.0,meteohub,2013-02-07 08:07:00,
2013-02-07 03:12:00,28.2,7.5,30.42,NW,323,6.0,10.0,41,0.00,,,0.00,0.0,meteohub,2013-02-07 08:12:00,
2013-02-07 03:17:00,28.2,8.6,30.42,North,0,6.0,10.0,43,0.00,,,0.00,0.0,meteohub,2013-02-07 08:17:00,
2013-02-07 03:22:00,28.2,8.6,30.42,NNE,21,5.0,10.0,43,0.00,,,0.00,0.0,meteohub,2013-02-07 08:22:00,
2013-02-07 03:27:00,28.0,8.4,30.43,NW,315,2.0,10.0,43,0.00,,,0.00,0.0,meteohub,2013-02-07 08:27:00,
2013-02-07 03:32:00,28.0,7.9,30.43,NNW,330,6.0,12.0,42,0.00,,,0.00,0.0,meteohub,2013-02-07 08:32:00,
2013-02-07 03:37:00,28.0,8.4,30.43,North,5,7.0,12.0,43,0.00,,,0.00,0.0,meteohub,2013-02-07 08:37:00,
2013-02-07 03:42:00,27.9,8.2,30.43,NNW,343,4.0,12.0,43,0.00,,,0.00,0.0,meteohub,2013-02-07 08:42:00,
2013-02-07 03:47:00,27.9,8.8,30.43,NNE,26,1.0,12.0,44,0.00,,,0.00,0.0,meteohub,2013-02-07 08:47:00,
2013-02-07 03:52:00,28.0,9.0,30.44,North,350,3.0,10.0,44,0.00,,,0.00,0.0,meteohub,2013-02-07 08:52:00,
2013-02-07 03:57:00,27.9,7.2,30.45,NNW,335,4.0,13.0,41,0.00,,,0.00,0.0,meteohub,2013-02-07 08:57:00,
2013-02-07 04:02:00,27.9,7.2,30.45,NNE,19,4.0,13.0,41,0.00,,,0.00,0.0,meteohub,2013-02-07 09:02:00,
2013-02-07 04:07:00,27.7,7.5,30.45,North,355,4.0,13.0,42,0.00,,,0.00,0.0,meteohub,2013-02-07 09:07:00,
2013-02-07 04:12:00,27.7,7.5,30.46,NNW,339,3.0,9.0,42,0.00,,,0.00,0.0,meteohub,2013-02-07 09:12:00,
2013-02-07 04:17:00,27.5,8.4,30.46,SW,217,1.0,10.0,44,0.00,,,0.00,0.0,meteohub,2013-02-07 09:17:00,
2013-02-07 04:22:00,27.3,8.8,30.46,NW,314,4.0,14.0,45,0.00,,,0.00,0.0,meteohub,2013-02-07 09:22:00,
2013-02-07 04:27:00,27.1,8.6,30.46,WNW,303,4.0,14.0,45,0.00,,,0.00,0.0,meteohub,2013-02-07 09:27:00,
2013-02-07 04:32:00,27.1,9.1,30.46,West,277,0.0,14.0,46,0.00,,,0.00,0.0,meteohub,2013-02-07 09:32:00,
2013-02-07 04:37:00,27.1,8.6,30.46,NNW,333,4.0,13.0,45,0.00,,,0.00,0.0,meteohub,2013-02-07 09:37:00,
2013-02-07 04:42:00,27.0,9.5,30.46,North,355,3.0,11.0,47,0.00,,,0.00,0.0,meteohub,2013-02-07 09:42:00,
2013-02-07 04:47:00,27.0,9.5,30.46,NW,319,4.0,9.0,47,0.00,,,0.00,0.0,meteohub,2013-02-07 09:47:00,
2013-02-07 04:52:00,27.0,9.5,30.46,NW,309,4.0,9.0,47,0.00,,,0.00,0.0,meteohub,2013-02-07 09:52:00,
2013-02-07 04:57:00,27.0,10.4,30.47,NNW,329,6.0,11.0,49,0.00,,,0.00,0.0,meteohub,2013-02-07 09:57:00,
2013-02-07 05:02:00,27.0,10.8,30.47,North,5,3.0,11.0,50,0.00,,,0.00,0.0,meteohub,2013-02-07 10:02:00,
2013-02-07 05:07:00,27.0,10.8,30.47,NW,318,4.0,10.0,50,0.00,,,0.00,0.0,meteohub,2013-02-07 10:07:00,
2013-02-07 05:12:00,27.0,10.4,30.47,North,5,8.0,10.0,49,0.00,,,0.00,0.0,meteohub,2013-02-07 10:12:00,
2013-02-07 05:17:00,27.0,10.4,30.47,North,355,3.0,11.0,49,0.00,,,0.00,0.0,meteohub,2013-02-07 10:17:00,
2013-02-07 05:22:00,27.0,10.8,30.46,NW,316,4.0,11.0,50,0.00,,,0.00,0.0,meteohub,2013-02-07 10:22:00,
2013-02-07 05:27:00,27.0,10.8,30.47,North,0,3.0,15.0,50,0.00,,,0.00,0.0,meteohub,2013-02-07 10:27:00,
2013-02-07 05:32:00,27.0,11.3,30.47,NNW,344,4.0,15.0,51,0.00,,,0.00,0.0,meteohub,2013-02-07 10:32:00,
2013-02-07 05:37:00,26.8,11.1,30.48,NNE,17,3.0,15.0,51,0.00,,,0.00,0.0,meteohub,2013-02-07 10:37:00,
2013-02-07 05:42:00,26.8,10.6,30.48,NNE,15,6.0,11.0,50,0.00,,,0.00,0.0,meteohub,2013-02-07 10:42:00,
2013-02-07 05:47:00,26.8,10.6,30.48,NNW,341,2.0,10.0,50,0.00,,,0.00,0.0,meteohub,2013-02-07 10:47:00,
2013-02-07 05:52:00,26.8,10.6,30.48,NW,320,4.0,9.0,50,0.00,,,0.00,0.0,meteohub,2013-02-07 10:52:00,
2013-02-07 05:57:00,26.8,10.6,30.48,NW,319,5.0,12.0,50,0.00,,,0.00,0.0,meteohub,2013-02-07 10:57:00,
2013-02-07 06:02:00,26.8,11.1,30.48,NNW,334,5.0,12.0,51,0.00,,,0.00,0.0,meteohub,2013-02-07 11:02:00,
2013-02-07 06:07:00,26.8,10.6,30.49,WNW,300,5.0,11.0,50,0.00,,,0.00,0.0,meteohub,2013-02-07 11:07:00,
2013-02-07 06:12:00,27.0,11.7,30.48,NNW,332,4.0,11.0,52,0.00,,,0.00,0.0,meteohub,2013-02-07 11:12:00,
2013-02-07 06:17:00,27.0,11.7,30.48,WNW,293,6.0,11.0,52,0.00,,,0.00,0.0,meteohub,2013-02-07 11:17:00,
2013-02-07 06:22:00,27.0,11.7,30.48,NW,325,1.0,11.0,52,0.00,,,0.00,0.0,meteohub,2013-02-07 11:22:00,
2013-02-07 06:27:00,27.0,11.7,30.48,North,9,5.0,12.0,52,0.00,,,0.00,0.0,meteohub,2013-02-07 11:27:00,
2013-02-07 06:32:00,27.0,11.7,30.48,NNW,346,4.0,12.0,52,0.00,,,0.00,0.0,meteohub,2013-02-07 11:32:00,
2013-02-07 06:37:00,27.1,11.5,30.48,NNE,24,5.0,12.0,51,0.00,,,0.00,0.0,meteohub,2013-02-07 11:37:00,
2013-02-07 06:42:00,27.1,11.5,30.48,North,349,4.0,12.0,51,0.00,,,0.00,0.0,meteohub,2013-02-07 11:42:00,
2013-02-07 06:48:00,27.1,11.8,30.48,North,11,7.0,12.0,52,0.00,,,0.00,0.0,meteohub,2013-02-07 11:48:00,
2013-02-07 06:53:00,27.3,12.0,30.48,NNE,20,11.0,12.0,52,0.00,,,0.00,0.0,meteohub,2013-02-07 11:53:00,
2013-02-07 06:58:00,27.3,10.2,30.48,ENE,72,5.0,13.0,48,0.00,,,0.00,0.0,meteohub,2013-02-07 11:58:00,
2013-02-07 07:03:00,27.3,9.7,30.48,North,5,5.0,13.0,47,0.00,,,0.00,5.0,meteohub,2013-02-07 12:03:00,
2013-02-07 07:08:00,27.3,9.3,30.48,North,5,7.0,15.0,46,0.00,,,0.00,7.0,meteohub,2013-02-07 12:08:00,
2013-02-07 07:13:00,27.3,9.3,30.48,North,0,7.0,17.0,46,0.00,,,0.00,11.0,meteohub,2013-02-07 12:13:00,
2013-02-07 07:18:00,27.3,10.2,30.49,NNE,32,4.0,17.0,48,0.00,,,0.00,16.0,meteohub,2013-02-07 12:18:00,
2013-02-07 07:23:00,27.3,9.3,30.49,North,11,6.0,17.0,46,0.00,,,0.00,21.0,meteohub,2013-02-07 12:23:00,
2013-02-07 07:28:00,27.3,10.2,30.51,WNW,282,2.0,17.0,48,0.00,,,0.00,25.0,meteohub,2013-02-07 12:28:00,
2013-02-07 07:33:00,27.3,10.2,30.51,North,5,6.0,17.0,48,0.00,,,0.00,28.0,meteohub,2013-02-07 12:33:00,
2013-02-07 07:38:00,27.5,10.8,30.52,NNE,14,6.0,17.0,49,0.00,,,0.00,33.0,meteohub,2013-02-07 12:38:00,
2013-02-07 07:43:00,27.7,9.7,30.52,NNE,31,6.0,13.0,46,0.00,,,0.00,42.0,meteohub,2013-02-07 12:43:00,
2013-02-07 07:48:00,27.5,9.5,30.52,NNE,12,7.0,12.0,46,0.00,,,0.00,46.0,meteohub,2013-02-07 12:48:00,
2013-02-07 07:53:00,27.3,8.8,30.53,NNE,15,6.0,10.0,45,0.00,,,0.00,51.0,meteohub,2013-02-07 12:53:00,
2013-02-07 07:58:00,27.3,9.3,30.53,NNE,17,8.0,11.0,46,0.00,,,0.00,56.0,meteohub,2013-02-07 12:58:00,
2013-02-07 08:03:00,27.1,9.1,30.53,NE,36,8.0,11.0,46,0.00,,,0.00,63.0,meteohub,2013-02-07 13:03:00,
2013-02-07 08:08:00,27.1,9.5,30.53,NNE,17,3.0,12.0,47,0.00,,,0.00,69.0,meteohub,2013-02-07 13:08:00,
2013-02-07 08:13:00,27.1,9.1,30.53,NE,40,4.0,12.0,46,0.00,,,0.00,77.0,meteohub,2013-02-07 13:13:00,
2013-02-07 08:18:00,27.1,9.5,30.53,NNE,25,6.0,12.0,47,0.00,,,0.00,76.0,meteohub,2013-02-07 13:18:00,
2013-02-07 08:23:00,27.1,10.0,30.54,North,10,5.0,12.0,48,0.00,,,0.00,81.0,meteohub,2013-02-07 13:23:00,
2013-02-07 08:28:00,27.0,9.5,30.54,NE,49,5.0,12.0,47,0.00,,,0.00,86.0,meteohub,2013-02-07 13:28:00,
2013-02-07 08:33:00,27.0,9.5,30.54,NNE,20,2.0,12.0,47,0.00,,,0.00,93.0,meteohub,2013-02-07 13:33:00,
2013-02-07 08:38:00,27.0,9.5,30.54,North,5,7.0,12.0,47,0.00,,,0.00,98.0,meteohub,2013-02-07 13:38:00,
2013-02-07 08:43:00,27.0,9.5,30.54,North,0,5.0,12.0,47,0.00,,,0.00,111.0,meteohub,2013-02-07 13:43:00,
2013-02-07 08:48:00,27.0,9.0,30.54,NNE,25,9.0,12.0,46,0.00,,,0.00,118.0,meteohub,2013-02-07 13:48:00,
2013-02-07 08:53:00,27.0,9.5,30.54,NNE,16,6.0,12.0,47,0.00,,,0.00,130.0,meteohub,2013-02-07 13:53:00,
2013-02-07 08:58:00,26.8,8.2,30.54,NNW,336,8.0,11.0,45,0.00,,,0.00,139.0,meteohub,2013-02-07 13:58:00,
2013-02-07 09:03:00,26.8,8.2,30.54,ENE,58,8.0,11.0,45,0.00,,,0.00,151.0,meteohub,2013-02-07 14:03:00,
2013-02-07 09:08:00,26.8,8.8,30.55,NNE,28,6.0,11.0,46,0.00,,,0.00,155.0,meteohub,2013-02-07 14:08:00,
2013-02-07 09:13:00,27.0,9.5,30.55,NNE,19,6.0,11.0,47,0.00,,,0.00,158.0,meteohub,2013-02-07 14:13:00,
2013-02-07 09:18:00,27.1,9.5,30.55,NNE,19,5.0,10.0,47,0.00,,,0.00,165.0,meteohub,2013-02-07 14:18:00,
2013-02-07 09:23:00,27.1,9.5,30.55,NNE,15,6.0,9.0,47,0.00,,,0.00,178.0,meteohub,2013-02-07 14:23:00,
2013-02-07 09:28:00,27.1,9.5,30.55,NNE,27,3.0,9.0,47,0.00,,,0.00,186.0,meteohub,2013-02-07 14:28:00,
2013-02-07 09:33:00,27.3,9.7,30.55,NNE,30,5.0,10.0,47,0.00,,,0.00,193.0,meteohub,2013-02-07 14:33:00,
2013-02-07 09:38:00,27.3,9.7,30.55,NNE,22,5.0,10.0,47,0.00,,,0.00,200.0,meteohub,2013-02-07 14:38:00,
2013-02-07 09:43:00,27.3,9.7,30.55,North,5,2.0,11.0,47,0.00,,,0.00,216.0,meteohub,2013-02-07 14:43:00,
2013-02-07 09:48:00,27.3,9.7,30.55,NNE,28,4.0,11.0,47,0.00,,,0.00,227.0,meteohub,2013-02-07 14:48:00,
2013-02-07 09:54:00,27.3,9.7,30.55,NNE,19,7.0,11.0,47,0.00,,,0.00,230.0,meteohub,2013-02-07 14:54:00,
2013-02-07 09:59:00,27.3,10.2,30.55,NNE,28,6.0,9.0,48,0.00,,,0.00,248.0,meteohub,2013-02-07 14:59:00,
2013-02-07 10:04:00,27.5,10.8,30.55,NE,36,4.0,9.0,49,0.00,,,0.00,265.0,meteohub,2013-02-07 15:04:00,
2013-02-07 10:09:00,27.7,10.6,30.55,NE,51,3.0,8.0,48,0.00,,,0.00,279.0,meteohub,2013-02-07 15:09:00,
2013-02-07 10:14:00,27.9,11.1,30.55,NE,41,5.0,8.0,49,0.00,,,0.00,274.0,meteohub,2013-02-07 15:14:00,
2013-02-07 10:19:00,27.7,10.0,30.55,ENE,62,4.0,7.0,47,0.00,,,0.00,278.0,meteohub,2013-02-07 15:19:00,
2013-02-07 10:24:00,27.7,10.6,30.56,ENE,71,8.0,8.0,48,0.00,,,0.00,295.0,meteohub,2013-02-07 15:24:00,
2013-02-07 10:29:00,27.7,9.7,30.56,North,5,3.0,8.0,46,0.00,,,0.00,318.0,meteohub,2013-02-07 15:29:00,
2013-02-07 10:34:00,27.9,10.2,30.56,NNE,12,3.0,8.0,47,0.00,,,0.00,297.0,meteohub,2013-02-07 15:34:00,
2013-02-07 10:39:00,27.9,9.7,30.56,North,9,3.0,8.0,46,0.00,,,0.00,315.0,meteohub,2013-02-07 15:39:00,
2013-02-07 10:44:00,27.9,10.2,30.56,North,355,3.0,7.0,47,0.00,,,0.00,302.0,meteohub,2013-02-07 15:44:00,
2013-02-07 10:49:00,27.7,10.0,30.56,NNW,340,4.0,8.0,47,0.00,,,0.00,316.0,meteohub,2013-02-07 15:49:00,
2013-02-07 10:54:00,28.0,11.3,30.56,North,5,1.0,8.0,49,0.00,,,0.00,327.0,meteohub,2013-02-07 15:54:00,
2013-02-07 10:59:00,28.0,10.9,30.56,North,355,7.0,8.0,48,0.00,,,0.00,311.0,meteohub,2013-02-07 15:59:00,
2013-02-07 11:04:00,28.2,11.5,30.56,NE,46,4.0,8.0,49,0.00,,,0.00,316.0,meteohub,2013-02-07 16:04:00,
2013-02-07 11:09:00,28.2,11.1,30.56,ENE,65,1.0,7.0,48,0.00,,,0.00,315.0,meteohub,2013-02-07 16:09:00,
2013-02-07 11:14:00,28.4,11.7,30.56,NNE,17,5.0,7.0,49,0.00,,,0.00,320.0,meteohub,2013-02-07 16:14:00,
2013-02-07 11:19:00,28.4,11.7,30.56,NE,44,5.0,7.0,49,0.00,,,0.00,315.0,meteohub,2013-02-07 16:19:00,
2013-02-07 11:24:00,28.2,11.5,30.56,North,5,3.0,6.0,49,0.00,,,0.00,308.0,meteohub,2013-02-07 16:24:00,
2013-02-07 11:29:00,28.2,10.6,30.56,NNE,17,4.0,7.0,47,0.00,,,0.00,313.0,meteohub,2013-02-07 16:29:00,
2013-02-07 11:34:00,28.2,10.6,30.55,NE,44,2.0,7.0,47,0.00,,,0.00,322.0,meteohub,2013-02-07 16:34:00,
2013-02-07 11:39:00,28.4,11.3,30.55,North,355,2.0,7.0,48,0.00,,,0.00,304.0,meteohub,2013-02-07 16:39:00,
2013-02-07 11:44:00,28.4,11.3,30.55,North,5,2.0,6.0,48,0.00,,,0.00,287.0,meteohub,2013-02-07 16:44:00,
2013-02-07 11:49:00,28.4,11.3,30.55,NNE,24,1.0,6.0,48,0.00,,,0.00,294.0,meteohub,2013-02-07 16:49:00,
2013-02-07 11:54:00,28.6,10.9,30.54,North,5,2.0,6.0,47,0.00,,,0.00,311.0,meteohub,2013-02-07 16:54:00,
2013-02-07 11:59:00,28.8,11.5,30.54,ENE,70,4.0,6.0,48,0.00,,,0.00,334.0,meteohub,2013-02-07 16:59:00,
2013-02-07 12:04:00,28.8,11.5,30.54,NE,52,2.0,6.0,48,0.00,,,0.00,350.0,meteohub,2013-02-07 17:04:00,
2013-02-07 12:09:00,28.6,11.8,30.54,North,355,3.0,7.0,49,0.00,,,0.00,362.0,meteohub,2013-02-07 17:09:00,
2013-02-07 12:14:00,28.6,10.9,30.54,NE,38,4.0,7.0,47,0.00,,,0.00,371.0,meteohub,2013-02-07 17:14:00,
2013-02-07 12:19:00,28.8,11.1,30.53,North,0,0.0,7.0,47,0.00,,,0.00,380.0,meteohub,2013-02-07 17:19:00,
2013-02-07 12:24:00,28.9,11.3,30.53,ENE,70,3.0,7.0,47,0.00,,,0.00,415.0,meteohub,2013-02-07 17:24:00,
2013-02-07 12:29:00,29.1,11.8,30.53,NE,38,4.0,7.0,48,0.00,,,0.00,404.0,meteohub,2013-02-07 17:29:00,
2013-02-07 12:34:00,29.1,10.9,30.53,NE,38,5.0,8.0,46,0.00,,,0.00,403.0,meteohub,2013-02-07 17:34:00,
2013-02-07 12:39:00,29.3,12.0,30.52,ENE,57,4.0,8.0,48,0.00,,,0.00,396.0,meteohub,2013-02-07 17:39:00,
2013-02-07 12:44:00,29.5,12.7,30.52,NE,53,2.0,8.0,49,0.00,,,0.00,406.0,meteohub,2013-02-07 17:44:00,
2013-02-07 12:49:00,29.7,12.9,30.52,North,355,4.0,8.0,49,0.00,,,0.00,385.0,meteohub,2013-02-07 17:49:00,
2013-02-07 12:54:00,29.5,13.6,30.52,ENE,58,4.0,7.0,51,0.00,,,0.00,374.0,meteohub,2013-02-07 17:54:00,
2013-02-07 12:59:00,29.7,14.2,30.52,NNE,33,4.0,8.0,52,0.00,,,0.00,390.0,meteohub,2013-02-07 17:59:00,
2013-02-07 13:04:00,29.8,13.5,30.52,NE,42,7.0,8.0,50,0.00,,,0.00,371.0,meteohub,2013-02-07 18:04:00,
2013-02-07 13:09:00,29.8,13.5,30.52,ENE,57,2.0,8.0,50,0.00,,,0.00,454.0,meteohub,2013-02-07 18:09:00,
2013-02-07 13:14:00,29.7,13.8,30.52,North,5,5.0,9.0,51,0.00,,,0.00,452.0,meteohub,2013-02-07 18:14:00,
2013-02-07 13:19:00,29.7,13.8,30.52,NNW,339,4.0,9.0,51,0.00,,,0.00,374.0,meteohub,2013-02-07 18:19:00,
2013-02-07 13:24:00,30.0,14.5,30.52,North,0,6.0,8.0,52,0.00,,,0.00,396.0,meteohub,2013-02-07 18:24:00,
2013-02-07 13:29:00,30.0,14.9,30.51,NE,47,3.0,8.0,53,0.00,,,0.00,446.0,meteohub,2013-02-07 18:29:00,
2013-02-07 13:34:00,30.2,14.7,30.51,ENE,73,3.0,8.0,52,0.00,,,0.00,408.0,meteohub,2013-02-07 18:34:00,
2013-02-07 13:39:00,29.8,14.0,30.51,NE,46,4.0,8.0,51,0.00,,,0.00,374.0,meteohub,2013-02-07 18:39:00,
2013-02-07 13:44:00,29.8,14.7,30.51,ENE,58,2.0,8.0,53,0.00,,,0.00,341.0,meteohub,2013-02-07 18:44:00,
2013-02-07 13:49:00,30.0,14.0,30.51,NNE,15,5.0,8.0,51,0.00,,,0.00,309.0,meteohub,2013-02-07 18:49:00,
2013-02-07 13:54:00,29.8,13.5,30.51,ENE,63,3.0,8.0,50,0.00,,,0.00,297.0,meteohub,2013-02-07 18:54:00,
2013-02-07 13:59:00,30.0,14.5,30.51,NNE,17,4.0,7.0,52,0.00,,,0.00,315.0,meteohub,2013-02-07 18:59:00,
2013-02-07 14:04:00,30.2,14.7,30.51,North,9,6.0,7.0,52,0.00,,,0.00,322.0,meteohub,2013-02-07 19:04:00,
2013-02-07 14:09:00,30.4,14.9,30.51,NNE,19,2.0,7.0,52,0.00,,,0.00,255.0,meteohub,2013-02-07 19:09:00,
2013-02-07 14:14:00,30.4,14.9,30.51,NNE,19,3.0,7.0,52,0.00,,,0.00,227.0,meteohub,2013-02-07 19:14:00,
2013-02-07 14:19:00,30.4,14.9,30.51,NNE,32,5.0,7.0,52,0.00,,,0.00,193.0,meteohub,2013-02-07 19:19:00,
2013-02-07 14:24:00,30.4,15.3,30.51,NE,35,4.0,7.0,53,0.00,,,0.00,186.0,meteohub,2013-02-07 19:24:00,
2013-02-07 14:29:00,30.4,15.3,30.51,NNE,16,3.0,7.0,53,0.00,,,0.00,192.0,meteohub,2013-02-07 19:29:00,
2013-02-07 14:34:00,30.4,15.8,30.50,NE,42,3.0,7.0,54,0.00,,,0.00,192.0,meteohub,2013-02-07 19:34:00,
2013-02-07 14:39:00,30.4,14.4,30.50,NNE,28,3.0,8.0,51,0.00,,,0.00,190.0,meteohub,2013-02-07 19:39:00,
2013-02-07 14:44:00,30.6,14.2,30.50,NNE,15,2.0,9.0,50,0.00,,,0.00,176.0,meteohub,2013-02-07 19:44:00,
2013-02-07 14:49:00,30.6,14.5,30.50,NE,42,1.0,9.0,51,0.00,,,0.00,188.0,meteohub,2013-02-07 19:49:00,
2013-02-07 14:54:00,30.7,15.3,30.50,NNE,32,4.0,9.0,52,0.00,,,0.00,251.0,meteohub,2013-02-07 19:54:00,
2013-02-07 14:59:00,30.9,16.2,30.51,NNE,14,1.0,8.0,54,0.00,,,0.00,202.0,meteohub,2013-02-07 19:59:00,
2013-02-07 15:04:00,30.9,16.2,30.50,NE,40,5.0,8.0,54,0.00,,,0.00,155.0,meteohub,2013-02-07 20:04:00,
2013-02-07 15:09:00,30.7,16.5,30.50,NNE,27,2.0,7.0,55,0.00,,,0.00,148.0,meteohub,2013-02-07 20:09:00,
2013-02-07 15:14:00,30.7,17.2,30.51,NE,42,4.0,7.0,57,0.00,,,0.00,149.0,meteohub,2013-02-07 20:14:00,
2013-02-07 15:19:00,30.9,16.7,30.51,NE,36,5.0,8.0,55,0.00,,,0.00,148.0,meteohub,2013-02-07 20:19:00,
2013-02-07 15:24:00,30.9,17.1,30.51,NNE,25,6.0,8.0,56,0.00,,,0.00,137.0,meteohub,2013-02-07 20:24:00,
2013-02-07 15:29:00,30.7,17.2,30.51,ENE,61,1.0,8.0,57,0.00,,,0.00,130.0,meteohub,2013-02-07 20:29:00,
2013-02-07 15:34:00,30.9,17.1,30.51,ENE,57,3.0,7.0,56,0.00,,,0.00,127.0,meteohub,2013-02-07 20:34:00,
2013-02-07 15:39:00,30.9,17.4,30.50,East,96,2.0,7.0,57,0.00,,,0.00,116.0,meteohub,2013-02-07 20:39:00,
2013-02-07 15:44:00,31.1,17.2,30.51,NE,55,5.0,7.0,56,0.00,,,0.00,114.0,meteohub,2013-02-07 20:44:00,
2013-02-07 15:50:00,30.9,17.4,30.51,ENE,63,3.0,5.0,57,0.00,,,0.00,104.0,meteohub,2013-02-07 20:50:00,
2013-02-07 15:55:00,31.1,16.9,30.51,ENE,78,3.0,5.0,55,0.00,,,0.00,100.0,meteohub,2013-02-07 20:55:00,
2013-02-07 16:00:00,31.3,16.5,30.50,SE,136,3.0,5.0,54,0.00,,,0.00,95.0,meteohub,2013-02-07 21:00:00,
2013-02-07 16:05:00,31.3,16.2,30.50,SE,136,1.0,5.0,53,0.00,,,0.00,91.0,meteohub,2013-02-07 21:05:00,
2013-02-07 16:10:00,31.5,16.3,30.50,ESE,121,3.0,5.0,53,0.00,,,0.00,86.0,meteohub,2013-02-07 21:10:00,
2013-02-07 16:15:00,31.5,15.8,30.50,SSE,150,2.0,5.0,52,0.00,,,0.00,70.0,meteohub,2013-02-07 21:15:00,
2013-02-07 16:20:00,31.3,16.2,30.50,SSW,205,2.0,6.0,53,0.00,,,0.00,58.0,meteohub,2013-02-07 21:20:00,
2013-02-07 16:25:00,31.3,15.6,30.50,NE,40,3.0,7.0,52,0.00,,,0.00,49.0,meteohub,2013-02-07 21:25:00,
2013-02-07 16:30:00,31.1,16.0,30.50,East,96,3.0,7.0,53,0.00,,,0.00,40.0,meteohub,2013-02-07 21:30:00,
2013-02-07 16:35:00,31.1,15.4,30.50,SE,126,2.0,7.0,52,0.00,,,0.00,32.0,meteohub,2013-02-07 21:35:00,
2013-02-07 16:40:00,30.9,15.8,30.50,SE,130,1.0,7.0,53,0.00,,,0.00,25.0,meteohub,2013-02-07 21:40:00,
2013-02-07 16:45:00,30.7,15.6,30.50,ESE,113,2.0,6.0,53,0.00,,,0.00,18.0,meteohub,2013-02-07 21:45:00,
2013-02-07 16:50:00,30.7,16.0,30.49,East,86,2.0,6.0,54,0.00,,,0.00,14.0,meteohub,2013-02-07 21:50:00,
2013-02-07 16:55:00,30.6,16.0,30.49,ENE,76,0.0,6.0,54,0.00,,,0.00,12.0,meteohub,2013-02-07 21:55:00,
2013-02-07 17:00:00,30.6,16.0,30.49,East,93,0.0,5.0,54,0.00,,,0.00,11.0,meteohub,2013-02-07 22:00:00,
2013-02-07 17:05:00,30.4,15.8,30.49,East,94,2.0,6.0,54,0.00,,,0.00,7.0,meteohub,2013-02-07 22:05:00,
2013-02-07 17:10:00,30.4,16.2,30.49,East,93,0.0,5.0,55,0.00,,,0.00,0.0,meteohub,2013-02-07 22:10:00,
2013-02-07 17:15:00,30.2,16.3,30.49,SE,128,2.0,5.0,56,0.00,,,0.00,0.0,meteohub,2013-02-07 22:15:00,
2013-02-07 17:20:00,30.0,16.7,30.49,ESE,118,1.0,3.0,57,0.00,,,0.00,0.0,meteohub,2013-02-07 22:20:00,
2013-02-07 17:25:00,30.0,16.7,30.49,ENE,73,0.0,5.0,57,0.00,,,0.00,0.0,meteohub,2013-02-07 22:25:00,
2013-02-07 17:30:00,30.0,17.1,30.48,East,79,3.0,5.0,58,0.00,,,0.00,0.0,meteohub,2013-02-07 22:30:00,
2013-02-07 17:35:00,29.8,17.2,30.49,ENE,70,2.0,5.0,59,0.00,,,0.00,0.0,meteohub,2013-02-07 22:35:00,
2013-02-07 17:40:00,29.8,17.2,30.49,ENE,74,0.0,5.0,59,0.00,,,0.00,0.0,meteohub,2013-02-07 22:40:00,
2013-02-07 17:45:00,29.8,17.2,30.49,ENE,76,0.0,4.0,59,0.00,,,0.00,0.0,meteohub,2013-02-07 22:45:00,
2013-02-07 17:50:00,29.8,17.6,30.49,ENE,76,0.0,2.0,60,0.00,,,0.00,0.0,meteohub,2013-02-07 22:50:00,
2013-02-07 17:55:00,29.8,17.6,30.49,East,89,1.0,3.0,60,0.00,,,0.00,0.0,meteohub,2013-02-07 22:55:00,
2013-02-07 18:00:00,29.8,17.6,30.50,ENE,63,2.0,3.0,60,0.00,,,0.00,0.0,meteohub,2013-02-07 23:00:00,
2013-02-07 18:05:00,30.0,17.8,30.49,East,86,2.0,4.0,60,0.00,,,0.00,0.0,meteohub,2013-02-07 23:05:00,
2013-02-07 18:10:00,30.0,17.8,30.50,East,98,3.0,5.0,60,0.00,,,0.00,0.0,meteohub,2013-02-07 23:10:00,
2013-02-07 18:15:00,30.0,17.8,30.49,East,84,2.0,6.0,60,0.00,,,0.00,0.0,meteohub,2013-02-07 23:15:00,
2013-02-07 18:20:00,30.2,18.3,30.49,East,90,3.0,6.0,61,0.00,,,0.00,0.0,meteohub,2013-02-07 23:20:00,
2013-02-07 18:25:00,30.2,18.3,30.49,NE,53,3.0,7.0,61,0.00,,,0.00,0.0,meteohub,2013-02-07 23:25:00,
2013-02-07 18:30:00,30.4,18.1,30.49,East,82,3.0,7.0,60,0.00,,,0.00,0.0,meteohub,2013-02-07 23:30:00,
2013-02-07 18:35:00,30.4,18.5,30.49,East,85,5.0,7.0,61,0.00,,,0.00,0.0,meteohub,2013-02-07 23:35:00,
2013-02-07 18:40:00,30.6,18.3,30.49,ENE,78,3.0,7.0,60,0.00,,,0.00,0.0,meteohub,2013-02-07 23:40:00,
2013-02-07 18:45:00,30.7,18.5,30.49,ESE,109,3.0,7.0,60,0.00,,,0.00,0.0,meteohub,2013-02-07 23:45:00,
2013-02-07 18:50:00,30.7,18.9,30.49,ENE,78,1.0,7.0,61,0.00,,,0.00,0.0,meteohub,2013-02-07 23:50:00,
2013-02-07 18:55:00,30.7,18.9,30.49,East,83,1.0,7.0,61,0.00,,,0.00,0.0,meteohub,2013-02-07 23:55:00,
2013-02-07 19:00:00,30.7,19.2,30.49,East,80,3.0,7.0,62,0.00,,,0.00,0.0,meteohub,2013-02-08 00:00:00,
2013-02-07 19:05:00,30.7,19.2,30.49,East,83,1.0,3.0,62,0.00,,,0.00,0.0,meteohub,2013-02-08 00:05:00,
2013-02-07 19:10:00,30.7,19.6,30.49,ENE,75,1.0,4.0,63,0.00,,,0.00,0.0,meteohub,2013-02-08 00:10:00,
2013-02-07 19:15:00,30.7,19.6,30.49,ESE,102,4.0,6.0,63,0.00,,,0.00,0.0,meteohub,2013-02-08 00:15:00,
2013-02-07 19:20:00,30.7,19.9,30.49,ENE,74,2.0,7.0,64,0.00,,,0.00,0.0,meteohub,2013-02-08 00:20:00,
2013-02-07 19:25:00,30.7,19.9,30.49,ENE,67,2.0,7.0,64,0.00,,,0.00,0.0,meteohub,2013-02-08 00:25:00,
2013-02-07 19:30:00,30.7,20.3,30.49,NE,50,2.0,7.0,65,0.00,,,0.00,0.0,meteohub,2013-02-08 00:30:00,
2013-02-07 19:36:00,30.7,20.3,30.49,ENE,65,2.0,6.0,65,0.00,,,0.00,0.0,meteohub,2013-02-08 00:36:00,
2013-02-07 19:41:00,30.7,20.3,30.49,ENE,67,3.0,7.0,65,0.00,,,0.00,0.0,meteohub,2013-02-08 00:41:00,
2013-02-07 19:46:00,30.7,20.3,30.49,ENE,73,2.0,7.0,65,0.00,,,0.00,0.0,meteohub,2013-02-08 00:46:00,
2013-02-07 19:51:00,30.9,20.8,30.49,ENE,76,1.0,7.0,66,0.00,,,0.00,0.0,meteohub,2013-02-08 00:51:00,
2013-02-07 19:56:00,30.7,20.7,30.49,NE,53,1.0,7.0,66,0.00,,,0.00,0.0,meteohub,2013-02-08 00:56:00,
2013-02-07 20:01:00,30.7,20.7,30.49,ENE,61,2.0,7.0,66,0.00,,,0.00,0.0,meteohub,2013-02-08 01:01:00,
2013-02-07 20:06:00,30.7,20.7,30.49,East,84,2.0,7.0,66,0.00,,,0.00,0.0,meteohub,2013-02-08 01:06:00,
2013-02-07 20:11:00,30.7,20.7,30.49,ENE,71,1.0,7.0,66,0.00,,,0.00,0.0,meteohub,2013-02-08 01:11:00,
2013-02-07 20:16:00,30.7,20.7,30.49,East,80,0.0,7.0,66,0.00,,,0.00,0.0,meteohub,2013-02-08 01:16:00,
2013-02-07 20:21:00,30.7,20.7,30.49,ENE,76,2.0,7.0,66,0.00,,,0.00,0.0,meteohub,2013-02-08 01:21:00,
2013-02-07 20:26:00,30.7,20.7,30.49,ENE,78,2.0,7.0,66,0.00,,,0.00,0.0,meteohub,2013-02-08 01:26:00,
2013-02-07 20:31:00,30.7,20.7,30.49,East,84,1.0,5.0,66,0.00,,,0.00,0.0,meteohub,2013-02-08 01:31:00,
2013-02-07 20:36:00,30.7,21.0,30.49,ENE,75,2.0,5.0,67,0.00,,,0.00,0.0,meteohub,2013-02-08 01:36:00,
2013-02-07 20:41:00,30.7,21.0,30.49,ENE,78,1.0,5.0,67,0.00,,,0.00,0.0,meteohub,2013-02-08 01:41:00,
2013-02-07 20:46:00,30.7,21.0,30.49,East,88,2.0,5.0,67,0.00,,,0.00,0.0,meteohub,2013-02-08 01:46:00,
2013-02-07 20:51:00,30.7,21.0,30.49,East,86,2.0,3.0,67,0.00,,,0.00,0.0,meteohub,2013-02-08 01:51:00,
2013-02-07 20:56:00,30.9,21.2,30.49,East,87,3.0,5.0,67,0.00,,,0.00,0.0,meteohub,2013-02-08 01:56:00,
2013-02-07 21:01:00,31.3,21.6,30.49,East,99,2.0,5.0,67,0.00,,,0.00,0.0,meteohub,2013-02-08 02:01:00,
2013-02-07 21:06:00,31.5,22.1,30.48,ENE,71,2.0,5.0,68,0.00,,,0.00,0.0,meteohub,2013-02-08 02:06:00,
2013-02-07 21:11:00,31.5,22.1,30.48,East,91,3.0,6.0,68,0.00,,,0.00,0.0,meteohub,2013-02-08 02:11:00,
2013-02-07 21:16:00,31.6,22.3,30.48,East,90,1.0,7.0,68,0.00,,,0.00,0.0,meteohub,2013-02-08 02:16:00,
2013-02-07 21:21:00,32.0,22.6,30.48,East,97,5.0,7.0,68,0.00,,,0.00,0.0,meteohub,2013-02-08 02:21:00,
2013-02-07 21:26:00,32.2,22.8,30.48,East,90,3.0,8.0,68,0.00,,,0.00,0.0,meteohub,2013-02-08 02:26:00,
2013-02-07 21:32:00,32.4,23.0,30.48,East,80,2.0,8.0,68,0.00,,,0.00,0.0,meteohub,2013-02-08 02:32:00,
2013-02-07 21:37:00,32.4,23.0,30.48,East,84,1.0,8.0,68,0.00,,,0.00,0.0,meteohub,2013-02-08 02:37:00,
2013-02-07 21:42:00,32.5,23.2,30.48,East,84,2.0,8.0,68,0.00,,,0.00,0.0,meteohub,2013-02-08 02:42:00,
2013-02-07 21:49:00,32.7,23.4,30.48,East,95,2.0,8.0,68,0.00,,,0.00,0.0,meteohub,2013-02-08 02:49:00,
2013-02-07 21:57:00,32.7,23.7,30.48,East,101,5.0,9.0,69,0.00,,,0.00,0.0,meteohub,2013-02-08 02:57:00,
2013-02-07 22:02:00,32.9,23.9,30.48,SE,126,3.0,9.0,69,0.00,,,0.00,0.0,meteohub,2013-02-08 03:02:00,
2013-02-07 22:07:00,33.1,24.1,30.48,ESE,115,4.0,6.0,69,0.00,,,0.00,0.0,meteohub,2013-02-08 03:07:00,
2013-02-07 22:12:00,33.3,24.3,30.47,ESE,107,3.0,9.0,69,0.00,,,0.00,0.0,meteohub,2013-02-08 03:12:00,
2013-02-07 22:17:00,33.3,24.3,30.47,East,101,3.0,9.0,69,0.00,,,0.00,0.0,meteohub,2013-02-08 03:17:00,
2013-02-07 22:22:00,33.3,24.3,30.47,ESE,123,2.0,15.0,69,0.00,,,0.00,0.0,meteohub,2013-02-08 03:22:00,
2013-02-07 22:27:00,33.3,24.3,30.47,East,91,3.0,15.0,69,0.00,,,0.00,0.0,meteohub,2013-02-08 03:27:00,
2013-02-07 22:32:00,33.3,24.6,30.47,East,81,3.0,15.0,70,0.00,,,0.00,0.0,meteohub,2013-02-08 03:32:00,
2013-02-07 22:37:00,33.3,24.6,30.47,ESE,108,5.0,13.0,70,0.00,,,0.00,0.0,meteohub,2013-02-08 03:37:00,
2013-02-07 22:42:00,33.3,24.3,30.46,East,94,6.0,16.0,69,0.00,,,0.00,0.0,meteohub,2013-02-08 03:42:00,
2013-02-07 22:50:00,33.3,24.6,30.46,East,94,5.0,16.0,70,0.00,,,0.00,0.0,meteohub,2013-02-08 03:50:00,
2013-02-07 22:55:00,33.1,24.4,30.46,ENE,63,7.0,10.0,70,0.00,,,0.00,0.0,meteohub,2013-02-08 03:55:00,
2013-02-07 23:00:00,33.1,24.4,30.45,East,80,3.0,11.0,70,0.00,,,0.00,0.0,meteohub,2013-02-08 04:00:00,
2013-02-07 23:05:00,32.9,24.3,30.45,NE,51,1.0,11.0,70,0.00,,,0.00,0.0,meteohub,2013-02-08 04:05:00,
2013-02-07 23:10:00,32.7,24.1,30.45,ESE,105,4.0,12.0,70,0.00,,,0.00,0.0,meteohub,2013-02-08 04:10:00,
2013-02-07 23:15:00,32.7,24.1,30.45,ESE,111,2.0,12.0,70,0.00,,,0.00,0.0,meteohub,2013-02-08 04:15:00,
2013-02-07 23:20:00,32.5,23.9,30.45,East,95,6.0,12.0,70,0.00,,,0.00,0.0,meteohub,2013-02-08 04:20:00,
2013-02-07 23:25:00,32.5,23.9,30.44,East,96,6.0,11.0,70,0.00,,,0.00,0.0,meteohub,2013-02-08 04:25:00,
2013-02-07 23:30:00,32.5,23.9,30.44,ESE,115,3.0,11.0,70,0.00,,,0.00,0.0,meteohub,2013-02-08 04:30:00,
2013-02-07 23:35:00,32.4,23.7,30.44,ESE,107,7.0,12.0,70,0.00,,,0.00,0.0,meteohub,2013-02-08 04:35:00,
2013-02-07 23:40:00,32.4,23.7,30.43,East,98,2.0,12.0,70,0.00,,,0.00,0.0,meteohub,2013-02-08 04:40:00,
2013-02-07 23:45:00,32.4,23.7,30.43,ENE,63,7.0,12.0,70,0.00,,,0.00,0.0,meteohub,2013-02-08 04:45:00,
2013-02-07 23:50:00,32.4,23.7,30.43,East,86,7.0,9.0,70,0.00,,,0.00,0.0,meteohub,2013-02-08 04:50:00,
2013-02-07 23:55:00,32.4,23.7,30.43,East,101,7.0,10.0,70,0.00,,,0.00,0.0,meteohub,2013-02-08 04:55:00,